Time;durP1;ratioP1;P1;durP2;ratioP2;P2;SDS_P1;SDS_P2;PMS_P1;PMS_P2;Temp;Humidity;BMP_temperature;BMP_pressure;BME280_temperature;BME280_humidity;BME280_pressure;Samples;Min_cycle;Max_cycle;Signal;HPM_P1;HPM_P2
2023/03/10 00:01:26;;;;;;;;;;;;;;;;;;4247227;27;19916;-43
2023/03/10 00:03:27;;;;;;;;;;;;;;;;;;4247303;27;19916;-49
2023/03/10 00:05:29;;;;;;;;;;;;;;;;;;4246728;27;19961;-46
2023/03/10 00:07:30;;;;;;;;;;;;;;;;;;4228934;28;19915;-49
2023/03/10 00:09:31;;;;;;;;;;;;;;;;;;4230257;28;19916;-47
2023/03/10 00:11:32;;;;;;;;;;;;;;;;;;4242305;27;19930;-48
2023/03/10 00:13:34;;;;;;;;;;;;;;;;;;4228769;28;20362;-47
2023/03/10 00:15:34;;;;;;;;;;;;;;;;;;4246785;27;19915;-46
2023/03/10 00:17:36;;;;;;;;;;;;;;;;;;4242099;27;19964;-50
2023/03/10 00:19:37;;;;;;;;;;;;;;;;;;4237682;27;19944;-50
2023/03/10 00:21:38;;;;;;;;;;;;;;;;;;4247293;28;19915;-49
2023/03/10 00:23:39;;;;;;;;;;;;;;;;;;4246666;28;19923;-50
2023/03/10 00:25:40;;;;;;;;;;;;;;;;;;4246638;28;19922;-47
2023/03/10 00:27:41;;;;;;;;;;;;;;;;;;4240377;28;19920;-46
2023/03/10 00:29:42;;;;;;;;;;;;;;;;;;4229665;28;20290;-48
2023/03/10 00:31:43;;;;;;;;;;;;;;;;;;4225231;28;19928;-44
2023/03/10 00:33:44;;;;;;;;;;;;;;;;;;4232799;28;20370;-48
2023/03/10 00:35:45;;;;;;;;;;;;;;;;;;4246276;28;19915;-48
2023/03/10 00:37:46;;;;;;;;;;;;;;;;;;4246939;28;19920;-46
2023/03/10 00:39:49;;;;;;;;;;;;;;;;;;4245642;28;20394;-50
2023/03/10 00:41:51;;;;;;;;;;;;;;;;;;4245225;28;19915;-48
2023/03/10 00:43:52;;;;;;;;;;;;;;;;;;4234843;28;19915;-49
2023/03/10 00:45:53;;;;;;;;;;;;;;;;;;4245733;28;19941;-46
2023/03/10 00:47:54;;;;;;;;;;;;;;;;;;4245603;28;19919;-47
2023/03/10 00:49:55;;;;;;;;;;;;;;;;;;4232289;28;19915;-48
2023/03/10 00:51:56;;;;;;;;;;;;;;;;;;4246370;28;20293;-47
2023/03/10 00:53:57;;;;;;;;;;;;;;;;;;4229643;28;19970;-47
2023/03/10 00:55:58;;;;;;;;;;;;;;;;;;4236382;28;19926;-46
2023/03/10 00:57:58;;;;;;;;;;;;;;;;;;4246200;28;19927;-45
2023/03/10 01:00:00;;;;;;;;;;;;;;;;;;4246008;28;20378;-47
2023/03/10 01:02:01;;;;;;;;;;;;;;;;;;4244686;28;19916;-48
2023/03/10 01:04:04;;;;;;;;;;;;;;;;;;4216600;28;19922;-45
2023/03/10 01:06:05;;;;;;;;;;;;;;;;;;4246070;28;20355;-45
2023/03/10 01:08:06;;;;;;;;;;;;;;;;;;4246797;28;19970;-47
2023/03/10 01:10:07;;;;;;;;;;;;;;;;;;4245112;28;19972;-45
2023/03/10 01:12:08;;;;;;;;;;;;;;;;;;4233997;28;19919;-48
2023/03/10 01:14:09;;;;;;;;;;;;;;;;;;4246499;28;19919;-47
2023/03/10 01:16:10;;;;;;;;;;;;;;;;;;4211679;28;19920;-45
2023/03/10 01:18:11;;;;;;;;;;;;;;;;;;4232824;28;19916;-45
2023/03/10 01:20:15;;;;;;;;;;;;;;;;;;4232392;28;19915;-45
2023/03/10 01:22:18;;;;;;;;;;;;;;;;;;4228324;28;19919;-48
2023/03/10 01:24:19;;;;;;;;;;;;;;;;;;4228386;28;19916;-47
2023/03/10 01:26:21;;;;;;;;;;;;;;;;;;4241694;28;20030;-46
2023/03/10 01:28:22;;;;;;;;;;;;;;;;;;4242401;28;19976;-47
2023/03/10 01:30:23;;;;;;;;;;;;;;;;;;4218874;28;20292;-46
2023/03/10 01:32:25;;;;;;;;;;;;;;;;;;4223756;28;19984;-47
2023/03/10 01:34:26;;;;;;;;;;;;;;;;;;4236902;27;19915;-45
2023/03/10 01:36:28;;;;;;;;;;;;;;;;;;4229926;28;19923;-48
2023/03/10 01:38:29;;;;;;;;;;;;;;;;;;4249431;27;19919;-43
2023/03/10 01:40:30;;;;;;;;;;;;;;;;;;4236072;27;19961;-43
2023/03/10 01:42:31;;;;;;;;;;;;;;;;;;4248824;27;19960;-45
2023/03/10 01:44:33;;;;;;;;;;;;;;;;;;4249583;27;19968;-44
2023/03/10 01:46:34;;;;;;;;;;;;;;;;;;4248259;27;20086;-44
2023/03/10 01:48:38;;;;;;;;;;;;;;;;;;4248434;27;19927;-49
2023/03/10 01:50:39;;;;;;;;;;;;;;;;;;4234515;27;20239;-49
2023/03/10 01:52:41;;;;;;;;;;;;;;;;;;4231135;28;20017;-49
2023/03/10 01:54:42;;;;;;;;;;;;;;;;;;4214233;28;20272;-48
2023/03/10 01:56:43;;;;;;;;;;;;;;;;;;4232408;28;19915;-45
2023/03/10 01:58:44;;;;;;;;;;;;;;;;;;4247113;27;20365;-50
2023/03/10 02:00:45;;;;;;;;;;;;;;;;;;4222747;28;20283;-49
2023/03/10 02:02:46;;;;;;;;;;;;;;;;;;4241628;27;19964;-48
2023/03/10 02:04:47;;;;;;;;;;;;;;;;;;4249211;27;19926;-46
2023/03/10 02:06:48;;;;;;;;;;;;;;;;;;4248298;27;20374;-47
2023/03/10 02:08:50;;;;;;;;;;;;;;;;;;4248431;27;19923;-48
2023/03/10 02:10:52;;;;;;;;;;;;;;;;;;4247996;27;20402;-44
2023/03/10 02:12:53;;;;;;;;;;;;;;;;;;4230494;28;19919;-45
2023/03/10 02:14:54;;;;;;;;;;;;;;;;;;4247638;27;19915;-46
2023/03/10 02:16:56;;;;;;;;;;;;;;;;;;4217113;28;19942;-45
2023/03/10 02:18:57;;;;;;;;;;;;;;;;;;4215698;28;19924;-44
2023/03/10 02:20:58;;;;;;;;;;;;;;;;;;4214116;28;20252;-45
2023/03/10 02:22:59;;;;;;;;;;;;;;;;;;4222567;28;20302;-43
2023/03/10 02:25:00;;;;;;;;;;;;;;;;;;4248728;27;20002;-44
2023/03/10 02:27:01;;;;;;;;;;;;;;;;;;4247241;27;19969;-44
2023/03/10 02:29:02;;;;;;;;;;;;;;;;;;4234982;27;19915;-46
2023/03/10 02:31:03;;;;;;;;;;;;;;;;;;4240685;27;19923;-47
2023/03/10 02:33:04;;;;;;;;;;;;;;;;;;4224258;28;19923;-42
2023/03/10 02:35:05;;;;;;;;;;;;;;;;;;4229718;28;19923;-46
2023/03/10 02:37:08;;;;;;;;;;;;;;;;;;4216777;28;19923;-44
2023/03/10 02:39:10;;;;;;;;;;;;;;;;;;4230692;28;19915;-46
2023/03/10 02:41:12;;;;;;;;;;;;;;;;;;4247707;27;19937;-45
2023/03/10 02:43:13;;;;;;;;;;;;;;;;;;4246958;27;19915;-44
2023/03/10 02:45:14;;;;;;;;;;;;;;;;;;4199839;28;19962;-45
2023/03/10 02:47:16;;;;;;;;;;;;;;;;;;4242369;27;19916;-44
2023/03/10 02:49:18;;;;;;;;;;;;;;;;;;4230159;28;20093;-45
2023/03/10 02:51:19;;;;;;;;;;;;;;;;;;4243780;27;20436;-45
2023/03/10 02:53:20;;;;;;;;;;;;;;;;;;4246886;27;20009;-47
2023/03/10 02:55:23;;;;;;;;;;;;;;;;;;4216020;28;19916;-44
2023/03/10 02:57:24;;;;;;;;;;;;;;;;;;4229848;28;20378;-45
2023/03/10 02:59:25;;;;;;;;;;;;;;;;;;4231342;28;19916;-51
2023/03/10 03:01:29;;;;;;;;;;;;;;;;;;4242094;27;19919;-48
2023/03/10 03:03:30;;;;;;;;;;;;;;;;;;4229860;28;19916;-48
2023/03/10 03:05:31;;;;;;;;;;;;;;;;;;4246284;27;19940;-45
2023/03/10 03:07:33;;;;;;;;;;;;;;;;;;4246773;27;19960;-50
2023/03/10 03:09:34;;;;;;;;;;;;;;;;;;4219468;28;19953;-46
2023/03/10 03:11:36;;;;;;;;;;;;;;;;;;4226286;28;19980;-46
2023/03/10 03:13:38;;;;;;;;;;;;;;;;;;4216269;28;20544;-45
2023/03/10 03:15:40;;;;;;;;;;;;;;;;;;4246731;27;19978;-48
2023/03/10 03:17:42;;;;;;;;;;;;;;;;;;4247346;27;19919;-45
2023/03/10 03:19:43;;;;;;;;;;;;;;;;;;4246896;27;19964;-44
2023/03/10 03:21:48;;;;;;;;;;;;;;;;;;4212251;28;19923;-46
2023/03/10 03:23:49;;;;;;;;;;;;;;;;;;4229870;28;19915;-43
2023/03/10 03:25:52;;;;;;;;;;;;;;;;;;4229608;28;19998;-46
2023/03/10 03:27:55;;;;;;;;;;;;;;;;;;4229669;28;19924;-45
2023/03/10 03:29:56;;;;;;;;;;;;;;;;;;4247387;27;20399;-49
2023/03/10 03:31:57;;;;;;;;;;;;;;;;;;4223953;28;19920;-49
2023/03/10 03:34:03;;;;;;;;;;;;;;;;;;4221806;28;19915;-48
2023/03/10 03:36:04;;;;;;;;;;;;;;;;;;4229011;28;19916;-49
2023/03/10 03:38:05;;;;;;;;;;;;;;;;;;4247670;27;20344;-47
2023/03/10 03:40:14;;;;;;;;;;;;;;;;;;4246441;27;19971;-48
2023/03/10 03:42:18;;;;;;;;;;;;;;;;;;4246368;27;19919;-45
2023/03/10 03:44:25;;;;;;;;;;;;;;;;;;4234201;27;19964;-48
2023/03/10 03:46:26;;;;;;;;;;;;;;;;;;4211921;28;19916;-45
2023/03/10 03:48:27;;;;;;;;;;;;;;;;;;4223868;28;20351;-43
2023/03/10 03:50:29;;;;;;;;;;;;;;;;;;4226708;28;19919;-44
2023/03/10 03:52:35;;;;;;;;;;;;;;;;;;4229003;28;19915;-43
2023/03/10 03:54:36;;;;;;;;;;;;;;;;;;4229549;28;19969;-44
2023/03/10 03:56:37;;;;;;;;;;;;;;;;;;4237296;27;19920;-44
2023/03/10 03:58:38;;;;;;;;;;;;;;;;;;4244453;27;19923;-48
2023/03/10 04:00:39;;;;;;;;;;;;;;;;;;4243004;27;19990;-48
2023/03/10 04:02:42;;;;;;;;;;;;;;;;;;4211658;28;20409;-46
2023/03/10 04:04:43;;;;;;;;;;;;;;;;;;4222282;28;20305;-48
2023/03/10 04:06:45;;;;;;;;;;;;;;;;;;4234190;27;20367;-49
2023/03/10 04:08:46;;;;;;;;;;;;;;;;;;4242732;27;19948;-45
2023/03/10 04:10:47;;;;;;;;;;;;;;;;;;4212497;28;19916;-49
2023/03/10 04:12:48;;;;;;;;;;;;;;;;;;4237596;27;20419;-49
2023/03/10 04:14:50;;;;;;;;;;;;;;;;;;4228194;28;19983;-49
2023/03/10 04:16:51;;;;;;;;;;;;;;;;;;4215769;28;19970;-45
2023/03/10 04:18:52;;;;;;;;;;;;;;;;;;4245052;27;20403;-46
2023/03/10 04:20:53;;;;;;;;;;;;;;;;;;4229176;28;20053;-43
2023/03/10 04:22:55;;;;;;;;;;;;;;;;;;4220148;28;20309;-44
2023/03/10 04:25:01;;;;;;;;;;;;;;;;;;4228825;28;19923;-45
2023/03/10 04:27:03;;;;;;;;;;;;;;;;;;4228383;28;20278;-44
2023/03/10 04:29:04;;;;;;;;;;;;;;;;;;4228915;28;19915;-43
2023/03/10 04:31:07;;;;;;;;;;;;;;;;;;4211708;28;19924;-46
2023/03/10 04:33:09;;;;;;;;;;;;;;;;;;4245843;28;19930;-43
2023/03/10 04:35:10;;;;;;;;;;;;;;;;;;4227826;28;19923;-46
2023/03/10 04:37:11;;;;;;;;;;;;;;;;;;4216981;28;19920;-44
2023/03/10 04:39:12;;;;;;;;;;;;;;;;;;4228541;28;19916;-43
2023/03/10 04:41:13;;;;;;;;;;;;;;;;;;4245897;28;19964;-43
2023/03/10 04:43:17;;;;;;;;;;;;;;;;;;4228439;28;19919;-51
2023/03/10 04:45:19;;;;;;;;;;;;;;;;;;4215458;28;19919;-49
2023/03/10 04:47:20;;;;;;;;;;;;;;;;;;4229814;28;20367;-46
2023/03/10 04:49:22;;;;;;;;;;;;;;;;;;4245239;28;19915;-44
2023/03/10 04:51:23;;;;;;;;;;;;;;;;;;4245407;28;19922;-49
2023/03/10 04:53:26;;;;;;;;;;;;;;;;;;4245451;28;19972;-43
2023/03/10 04:55:27;;;;;;;;;;;;;;;;;;4228403;28;19928;-46
2023/03/10 04:57:29;;;;;;;;;;;;;;;;;;4228408;28;19923;-49
2023/03/10 04:59:30;;;;;;;;;;;;;;;;;;4229053;28;19916;-47
2023/03/10 05:01:32;;;;;;;;;;;;;;;;;;4229184;28;19916;-45
2023/03/10 05:03:36;;;;;;;;;;;;;;;;;;4228271;28;19930;-44
2023/03/10 05:05:37;;;;;;;;;;;;;;;;;;4230582;28;19916;-47
2023/03/10 05:07:38;;;;;;;;;;;;;;;;;;4232883;28;20024;-44
2023/03/10 05:09:40;;;;;;;;;;;;;;;;;;4248737;27;20412;-43
2023/03/10 05:11:41;;;;;;;;;;;;;;;;;;4217396;28;19916;-47
2023/03/10 05:13:42;;;;;;;;;;;;;;;;;;4228144;28;19923;-44
2023/03/10 05:15:43;;;;;;;;;;;;;;;;;;4221660;28;20410;-46
2023/03/10 05:17:44;;;;;;;;;;;;;;;;;;4231267;28;19985;-43
2023/03/10 05:19:45;;;;;;;;;;;;;;;;;;4216354;28;19916;-43
2023/03/10 05:21:47;;;;;;;;;;;;;;;;;;4231933;28;19968;-42
2023/03/10 05:23:49;;;;;;;;;;;;;;;;;;4231687;28;19923;-44
2023/03/10 05:25:50;;;;;;;;;;;;;;;;;;4231424;28;19972;-44
2023/03/10 05:27:52;;;;;;;;;;;;;;;;;;4231723;28;20377;-44
2023/03/10 05:29:55;;;;;;;;;;;;;;;;;;4214159;28;20002;-46
2023/03/10 05:31:59;;;;;;;;;;;;;;;;;;4215393;28;19943;-47
2023/03/10 05:34:05;;;;;;;;;;;;;;;;;;4241029;27;19927;-47
2023/03/10 05:36:07;;;;;;;;;;;;;;;;;;4226842;28;19919;-47
2023/03/10 05:38:08;;;;;;;;;;;;;;;;;;4248688;27;19923;-47
2023/03/10 05:40:09;;;;;;;;;;;;;;;;;;4221101;28;19989;-49
2023/03/10 05:42:11;;;;;;;;;;;;;;;;;;4227804;28;19916;-46
2023/03/10 05:44:12;;;;;;;;;;;;;;;;;;4231234;28;19915;-44
2023/03/10 05:46:14;;;;;;;;;;;;;;;;;;4220354;28;19964;-50
2023/03/10 05:48:23;;;;;;;;;;;;;;;;;;4231265;28;19923;-49
2023/03/10 05:50:24;;;;;;;;;;;;;;;;;;4231475;28;20433;-47
2023/03/10 05:52:26;;;;;;;;;;;;;;;;;;4234191;27;19915;-48
2023/03/10 05:54:26;;;;;;;;;;;;;;;;;;4237347;27;20006;-48
2023/03/10 05:56:27;;;;;;;;;;;;;;;;;;4223567;28;20026;-46
2023/03/10 05:58:32;;;;;;;;;;;;;;;;;;4227102;28;20291;-46
2023/03/10 06:00:33;;;;;;;;;;;;;;;;;;4216755;28;19927;-45
2023/03/10 06:02:35;;;;;;;;;;;;;;;;;;4217195;28;19949;-47
2023/03/10 06:04:36;;;;;;;;;;;;;;;;;;4213330;28;19920;-47
2023/03/10 06:06:37;;;;;;;;;;;;;;;;;;4225240;28;19943;-47
2023/03/10 06:08:39;;;;;;;;;;;;;;;;;;4215308;28;19919;-46
2023/03/10 06:10:40;;;;;;;;;;;;;;;;;;4225678;28;20411;-46
2023/03/10 06:12:41;;;;;;;;;;;;;;;;;;4220308;28;19919;-44
2023/03/10 06:14:42;;;;;;;;;;;;;;;;;;4227403;28;20087;-49
2023/03/10 06:16:49;;;;;;;;;;;;;;;;;;4229243;28;19972;-46
2023/03/10 06:18:50;;;;;;;;;;;;;;;;;;4215960;28;19920;-47
2023/03/10 06:20:54;;;;;;;;;;;;;;;;;;4230060;27;19976;-48
2023/03/10 06:22:56;;;;;;;;;;;;;;;;;;4229617;28;20385;-47
2023/03/10 06:24:57;;;;;;;;;;;;;;;;;;4221501;28;19927;-47
2023/03/10 06:26:58;;;;;;;;;;;;;;;;;;4244167;27;19930;-44
2023/03/10 06:28:59;;;;;;;;;;;;;;;;;;4246921;27;19919;-49
2023/03/10 06:31:00;;;;;;;;;;;;;;;;;;4228357;28;19984;-49
2023/03/10 06:33:01;;;;;;;;;;;;;;;;;;4246548;27;20362;-50
2023/03/10 06:35:03;;;;;;;;;;;;;;;;;;4246612;27;19972;-49
2023/03/10 06:37:04;;;;;;;;;;;;;;;;;;4245740;27;20097;-49
2023/03/10 06:39:05;;;;;;;;;;;;;;;;;;4240319;27;19961;-49
2023/03/10 06:41:06;;;;;;;;;;;;;;;;;;4237438;27;19922;-48
2023/03/10 06:43:07;;;;;;;;;;;;;;;;;;4233755;27;19916;-51
2023/03/10 06:45:09;;;;;;;;;;;;;;;;;;4245015;27;19926;-50
2023/03/10 06:47:09;;;;;;;;;;;;;;;;;;4246071;27;19974;-47
2023/03/10 06:49:11;;;;;;;;;;;;;;;;;;4246378;27;19915;-50
2023/03/10 06:51:12;;;;;;;;;;;;;;;;;;4246161;27;19926;-46
2023/03/10 06:53:13;;;;;;;;;;;;;;;;;;4234847;27;20390;-45
2023/03/10 06:55:15;;;;;;;;;;;;;;;;;;4229860;28;19915;-48
2023/03/10 06:57:17;;;;;;;;;;;;;;;;;;4228951;27;19924;-48
2023/03/10 06:59:18;;;;;;;;;;;;;;;;;;4234075;27;19948;-48
2023/03/10 07:01:19;;;;;;;;;;;;;;;;;;4218968;28;20001;-50
2023/03/10 07:03:21;;;;;;;;;;;;;;;;;;4237960;27;19968;-50
2023/03/10 07:05:23;;;;;;;;;;;;;;;;;;4234528;27;19920;-47
2023/03/10 07:07:24;;;;;;;;;;;;;;;;;;4234812;27;19915;-43
2023/03/10 07:09:26;;;;;;;;;;;;;;;;;;4237251;27;19979;-46
2023/03/10 07:11:27;;;;;;;;;;;;;;;;;;4231194;27;19916;-44
2023/03/10 07:13:28;;;;;;;;;;;;;;;;;;4234696;27;19930;-46
2023/03/10 07:15:28;;;;;;;;;;;;;;;;;;4229562;27;20356;-41
2023/03/10 07:17:29;;;;;;;;;;;;;;;;;;4227217;27;19927;-40
2023/03/10 07:19:31;;;;;;;;;;;;;;;;;;4221782;28;19920;-49
2023/03/10 07:21:32;;;;;;;;;;;;;;;;;;4224951;27;19926;-43
2023/03/10 07:23:33;;;;;;;;;;;;;;;;;;4235104;27;19969;-44
2023/03/10 07:25:35;;;;;;;;;;;;;;;;;;4233168;27;19923;-45
2023/03/10 07:27:36;;;;;;;;;;;;;;;;;;4196201;28;20049;-45
2023/03/10 07:29:37;;;;;;;;;;;;;;;;;;4231192;27;20231;-46
2023/03/10 07:31:39;;;;;;;;;;;;;;;;;;4234620;27;21768;-46
2023/03/10 07:33:40;;;;;;;;;;;;;;;;;;4233239;27;19930;-47
2023/03/10 07:35:41;;;;;;;;;;;;;;;;;;4218626;28;19920;-49
2023/03/10 07:37:42;;;;;;;;;;;;;;;;;;4235628;27;20333;-50
2023/03/10 07:39:43;;;;;;;;;;;;;;;;;;4231518;27;19919;-44
2023/03/10 07:41:44;;;;;;;;;;;;;;;;;;4233179;27;19920;-46
2023/03/10 07:43:46;;;;;;;;;;;;;;;;;;4230198;27;19923;-48
2023/03/10 07:45:47;;;;;;;;;;;;;;;;;;4231385;27;20306;-44
2023/03/10 07:47:48;;;;;;;;;;;;;;;;;;4228135;27;19923;-46
2023/03/10 07:49:49;;;;;;;;;;;;;;;;;;4232856;27;20334;-46
2023/03/10 07:51:50;;;;;;;;;;;;;;;;;;4230337;27;19919;-46
2023/03/10 07:53:52;;;;;;;;;;;;;;;;;;4224663;27;19924;-48
2023/03/10 07:55:53;;;;;;;;;;;;;;;;;;4224204;27;19934;-51
2023/03/10 07:57:55;;;;;;;;;;;;;;;;;;4230957;27;19934;-46
2023/03/10 07:59:56;;;;;;;;;;;;;;;;;;4230975;27;20366;-47
2023/03/10 08:01:57;;;;;;;;;;;;;;;;;;4222741;27;19934;-47
2023/03/10 08:03:58;;;;;;;;;;;;;;;;;;4228243;27;19967;-49
2023/03/10 08:05:58;;;;;;;;;;;;;;;;;;4228395;27;19927;-48
2023/03/10 08:07:59;;;;;;;;;;;;;;;;;;4229306;27;19941;-41
2023/03/10 08:10:00;;;;;;;;;;;;;;;;;;4227593;27;20464;-41
2023/03/10 08:12:02;;;;;;;;;;;;;;;;;;4227354;27;19923;-48
2023/03/10 08:14:03;;;;;;;;;;;;;;;;;;4219663;27;19919;-47
2023/03/10 08:16:04;;;;;;;;;;;;;;;;;;4225810;27;20298;-47
2023/03/10 08:18:06;;;;;;;;;;;;;;;;;;4221235;27;19973;-51
2023/03/10 08:20:07;;;;;;;;;;;;;;;;;;4223287;27;20352;-51
2023/03/10 08:22:09;;;;;;;;;;;;;;;;;;4222349;28;20034;-46
2023/03/10 08:24:10;;;;;;;;;;;;;;;;;;4210901;28;19928;-49
2023/03/10 08:26:11;;;;;;;;;;;;;;;;;;4212196;28;19935;-51
2023/03/10 08:28:12;;;;;;;;;;;;;;;;;;4230567;28;19945;-48
2023/03/10 08:30:14;;;;;;;;;;;;;;;;;;4213662;28;19965;-51
2023/03/10 08:32:15;;;;;;;;;;;;;;;;;;4223669;28;19977;-50
2023/03/10 08:34:17;;;;;;;;;;;;;;;;;;4226561;28;19919;-46
2023/03/10 08:36:17;;;;;;;;;;;;;;;;;;4226441;28;19934;-47
2023/03/10 08:38:19;;;;;;;;;;;;;;;;;;4228778;28;19930;-46
2023/03/10 08:40:20;;;;;;;;;;;;;;;;;;4229987;27;19919;-51
2023/03/10 08:42:21;;;;;;;;;;;;;;;;;;4225777;27;19923;-46
2023/03/10 08:44:22;;;;;;;;;;;;;;;;;;4226997;27;20370;-45
2023/03/10 08:46:23;;;;;;;;;;;;;;;;;;4226048;27;19923;-50
2023/03/10 08:48:25;;;;;;;;;;;;;;;;;;4232916;27;19920;-51
2023/03/10 08:50:25;;;;;;;;;;;;;;;;;;4225415;27;19951;-54
2023/03/10 08:52:27;;;;;;;;;;;;;;;;;;4228821;27;19920;-51
2023/03/10 08:54:27;;;;;;;;;;;;;;;;;;4225834;27;20011;-49
2023/03/10 08:56:28;;;;;;;;;;;;;;;;;;4225650;27;19930;-48
2023/03/10 08:58:30;;;;;;;;;;;;;;;;;;4221676;27;19927;-47
2023/03/10 09:00:31;;;;;;;;;;;;;;;;;;4224858;27;20404;-44
2023/03/10 09:02:32;;;;;;;;;;;;;;;;;;4223990;27;19927;-45
2023/03/10 09:04:33;;;;;;;;;;;;;;;;;;4223729;27;19976;-47
2023/03/10 09:06:34;;;;;;;;;;;;;;;;;;4227247;27;20283;-48
2023/03/10 09:08:36;;;;;;;;;;;;;;;;;;4230345;27;19919;-47
2023/03/10 09:10:36;;;;;;;;;;;;;;;;;;4224457;27;21477;-51
2023/03/10 09:12:38;;;;;;;;;;;;;;;;;;4220843;27;19924;-52
2023/03/10 09:14:39;;;;;;;;;;;;;;;;;;4220032;27;19920;-51
2023/03/10 09:16:40;;;;;;;;;;;;;;;;;;4220084;27;19927;-52
2023/03/10 09:18:42;;;;;;;;;;;;;;;;;;4221512;27;19927;-49
2023/03/10 09:20:42;;;;;;;;;;;;;;;;;;4230480;27;19919;-51
2023/03/10 09:22:44;;;;;;;;;;;;;;;;;;4224962;27;19998;-48
2023/03/10 09:24:45;;;;;;;;;;;;;;;;;;4225223;27;19959;-47
2023/03/10 09:26:46;;;;;;;;;;;;;;;;;;4214416;28;19923;-48
2023/03/10 09:28:48;;;;;;;;;;;;;;;;;;4226803;27;19920;-48
2023/03/10 09:30:49;;;;;;;;;;;;;;;;;;4221083;27;20385;-48
2023/03/10 09:32:50;;;;;;;;;;;;;;;;;;4221945;27;19931;-48
2023/03/10 09:34:51;;;;;;;;;;;;;;;;;;4224660;27;19919;-47
2023/03/10 09:36:53;;;;;;;;;;;;;;;;;;4225610;27;20020;-50
2023/03/10 09:38:54;;;;;;;;;;;;;;;;;;4223232;27;19927;-48
2023/03/10 09:40:55;;;;;;;;;;;;;;;;;;4224670;27;20384;-52
2023/03/10 09:42:55;;;;;;;;;;;;;;;;;;4225593;27;20382;-52
2023/03/10 09:44:57;;;;;;;;;;;;;;;;;;4226584;27;20002;-51
2023/03/10 09:47:00;;;;;;;;;;;;;;;;;;4208713;28;19923;-46
2023/03/10 09:49:02;;;;;;;;;;;;;;;;;;4225543;27;20435;-45
2023/03/10 09:51:04;;;;;;;;;;;;;;;;;;4225354;27;19924;-45
2023/03/10 09:53:08;;;;;;;;;;;;;;;;;;4224384;27;19988;-49
2023/03/10 09:55:10;;;;;;;;;;;;;;;;;;4223142;27;20301;-49
2023/03/10 09:57:11;;;;;;;;;;;;;;;;;;4225449;27;19919;-53
2023/03/10 09:59:12;;;;;;;;;;;;;;;;;;4222112;27;19983;-51
2023/03/10 10:01:16;;;;;;;;;;;;;;;;;;4220528;27;20860;-49
2023/03/10 10:03:17;;;;;;;;;;;;;;;;;;4211406;27;19972;-51
2023/03/10 10:05:18;;;;;;;;;;;;;;;;;;4219683;27;19923;-47
2023/03/10 10:07:19;;;;;;;;;;;;;;;;;;4223347;27;20438;-51
2023/03/10 10:09:20;;;;;;;;;;;;;;;;;;4223044;27;20371;-50
2023/03/10 10:11:21;;;;;;;;;;;;;;;;;;4218950;27;19947;-47
2023/03/10 10:13:24;;;;;;;;;;;;;;;;;;4223124;27;19920;-53
2023/03/10 10:15:25;;;;;;;;;;;;;;;;;;4227647;27;20004;-46
2023/03/10 10:17:26;;;;;;;;;;;;;;;;;;4222717;27;20332;-48
2023/03/10 10:19:27;;;;;;;;;;;;;;;;;;4224192;27;20859;-48
2023/03/10 10:21:28;;;;;;;;;;;;;;;;;;4225136;27;19984;-50
2023/03/10 10:23:29;;;;;;;;;;;;;;;;;;4218892;27;20042;-46
2023/03/10 10:25:30;;;;;;;;;;;;;;;;;;4219787;27;20600;-54
2023/03/10 10:27:30;;;;;;;;;;;;;;;;;;4223723;27;19930;-46
2023/03/10 10:29:33;;;;;;;;;;;;;;;;;;4218319;27;19930;-47
2023/03/10 10:31:34;;;;;;;;;;;;;;;;;;4222725;27;19976;-47
2023/03/10 10:33:36;;;;;;;;;;;;;;;;;;4222925;27;19926;-45
2023/03/10 10:35:40;;;;;;;;;;;;;;;;;;4207897;28;20402;-48
2023/03/10 10:37:42;;;;;;;;;;;;;;;;;;4208317;28;19930;-45
2023/03/10 10:39:43;;;;;;;;;;;;;;;;;;4214035;27;19973;-46
2023/03/10 10:41:45;;;;;;;;;;;;;;;;;;4224252;27;19930;-48
2023/03/10 10:43:46;;;;;;;;;;;;;;;;;;4222177;27;19919;-48
2023/03/10 10:45:47;;;;;;;;;;;;;;;;;;4225490;27;19920;-48
2023/03/10 10:47:48;;;;;;;;;;;;;;;;;;4227240;27;19993;-49
2023/03/10 10:49:50;;;;;;;;;;;;;;;;;;4222626;27;19969;-48
2023/03/10 10:51:51;;;;;;;;;;;;;;;;;;4216783;27;19996;-48
2023/03/10 10:53:53;;;;;;;;;;;;;;;;;;4224725;27;19920;-52
2023/03/10 10:55:54;;;;;;;;;;;;;;;;;;4208434;28;19920;-51
2023/03/10 10:57:55;;;;;;;;;;;;;;;;;;4205471;28;19924;-49
2023/03/10 10:59:56;;;;;;;;;;;;;;;;;;4223755;27;19972;-52
2023/03/10 11:01:57;;;;;;;;;;;;;;;;;;4214013;27;20396;-50
2023/03/10 11:03:58;;;;;;;;;;;;;;;;;;4214476;27;19968;-47
2023/03/10 11:05:59;;;;;;;;;;;;;;;;;;4219052;27;20010;-47
2023/03/10 11:08:00;;;;;;;;;;;;;;;;;;4223591;27;20443;-46
2023/03/10 11:10:01;;;;;;;;;;;;;;;;;;4228638;27;19987;-45
2023/03/10 11:12:02;;;;;;;;;;;;;;;;;;4225066;27;19980;-46
2023/03/10 11:14:04;;;;;;;;;;;;;;;;;;4229013;27;20104;-48
2023/03/10 11:16:05;;;;;;;;;;;;;;;;;;4231191;27;19924;-51
2023/03/10 11:18:07;;;;;;;;;;;;;;;;;;4197635;28;19987;-48
2023/03/10 11:20:09;;;;;;;;;;;;;;;;;;4223417;27;19928;-46
2023/03/10 11:22:10;;;;;;;;;;;;;;;;;;4225017;27;19919;-47
2023/03/10 11:24:11;;;;;;;;;;;;;;;;;;4225965;27;19924;-50
2023/03/10 11:26:12;;;;;;;;;;;;;;;;;;4205726;27;19916;-45
2023/03/10 11:28:13;;;;;;;;;;;;;;;;;;4191375;28;19939;-49
2023/03/10 11:30:14;;;;;;;;;;;;;;;;;;4183778;28;19924;-46
2023/03/10 11:32:17;;;;;;;;;;;;;;;;;;4188811;28;20284;-50
2023/03/10 11:34:22;;;;;;;;;;;;;;;;;;4189876;28;19924;-48
2023/03/10 11:36:23;;;;;;;;;;;;;;;;;;4191808;28;19924;-51
2023/03/10 11:38:27;;;;;;;;;;;;;;;;;;4190656;28;19924;-51
2023/03/10 11:40:28;;;;;;;;;;;;;;;;;;4200453;28;19984;-44
2023/03/10 11:42:29;;;;;;;;;;;;;;;;;;4187510;28;19923;-45
2023/03/10 11:44:30;;;;;;;;;;;;;;;;;;4197116;28;20359;-48
2023/03/10 11:46:31;;;;;;;;;;;;;;;;;;4191845;28;19965;-47
2023/03/10 11:48:32;;;;;;;;;;;;;;;;;;4187173;28;19921;-47
2023/03/10 11:50:34;;;;;;;;;;;;;;;;;;4189122;28;20391;-47
2023/03/10 11:52:35;;;;;;;;;;;;;;;;;;4189225;28;19935;-46
2023/03/10 11:54:36;;;;;;;;;;;;;;;;;;4190276;28;20336;-51
2023/03/10 11:56:37;;;;;;;;;;;;;;;;;;4183470;28;19966;-50
2023/03/10 11:58:38;;;;;;;;;;;;;;;;;;4175617;28;19991;-51
2023/03/10 12:00:40;;;;;;;;;;;;;;;;;;4189325;28;20300;-48
2023/03/10 12:02:41;;;;;;;;;;;;;;;;;;4187838;28;19924;-51
2023/03/10 12:04:42;;;;;;;;;;;;;;;;;;4193661;28;20516;-50
2023/03/10 12:06:43;;;;;;;;;;;;;;;;;;4186494;28;19920;-46
2023/03/10 12:08:44;;;;;;;;;;;;;;;;;;4188707;28;19919;-48
2023/03/10 12:10:45;;;;;;;;;;;;;;;;;;4186798;28;19951;-50
2023/03/10 12:12:46;;;;;;;;;;;;;;;;;;4188945;28;20002;-48
2023/03/10 12:14:49;;;;;;;;;;;;;;;;;;4191220;28;19977;-47
2023/03/10 12:16:49;;;;;;;;;;;;;;;;;;4192856;28;19925;-49
2023/03/10 12:18:52;;;;;;;;;;;;;;;;;;4191106;28;19969;-50
2023/03/10 12:20:53;;;;;;;;;;;;;;;;;;4196265;28;19949;-51
2023/03/10 12:22:54;;;;;;;;;;;;;;;;;;4187182;28;19924;-55
2023/03/10 12:24:55;;;;;;;;;;;;;;;;;;4192621;28;19931;-51
2023/03/10 12:26:57;;;;;;;;;;;;;;;;;;4210623;28;20477;-52
2023/03/10 12:28:57;;;;;;;;;;;;;;;;;;4196843;28;20014;-50
2023/03/10 12:30:58;;;;;;;;;;;;;;;;;;4211456;28;20069;-51
2023/03/10 12:33:00;;;;;;;;;;;;;;;;;;4204150;28;19927;-47
2023/03/10 12:35:01;;;;;;;;;;;;;;;;;;4209506;28;20728;-53
2023/03/10 12:37:02;;;;;;;;;;;;;;;;;;4209796;28;19959;-47
2023/03/10 12:39:03;;;;;;;;;;;;;;;;;;4215664;28;19973;-48
2023/03/10 12:41:04;;;;;;;;;;;;;;;;;;4217207;28;19963;-51
2023/03/10 12:43:05;;;;;;;;;;;;;;;;;;4190677;28;19943;-52
2023/03/10 12:45:06;;;;;;;;;;;;;;;;;;4202240;28;21085;-52
2023/03/10 12:47:07;;;;;;;;;;;;;;;;;;4208024;28;20371;-50
2023/03/10 12:49:08;;;;;;;;;;;;;;;;;;4202604;28;19923;-52
2023/03/10 12:51:09;;;;;;;;;;;;;;;;;;4204945;28;19946;-53
2023/03/10 12:53:11;;;;;;;;;;;;;;;;;;4203649;28;19920;-50
2023/03/10 12:55:12;;;;;;;;;;;;;;;;;;4191260;28;19920;-47
2023/03/10 12:57:13;;;;;;;;;;;;;;;;;;4211228;28;19923;-50
2023/03/10 12:59:15;;;;;;;;;;;;;;;;;;4208031;28;19935;-48
2023/03/10 13:01:16;;;;;;;;;;;;;;;;;;4209717;28;19916;-51
2023/03/10 13:03:17;;;;;;;;;;;;;;;;;;4202526;28;19930;-49
2023/03/10 13:05:18;;;;;;;;;;;;;;;;;;4204727;28;19934;-48
2023/03/10 13:07:19;;;;;;;;;;;;;;;;;;4206682;28;19968;-50
2023/03/10 13:09:21;;;;;;;;;;;;;;;;;;4200037;28;19923;-48
2023/03/10 13:11:22;;;;;;;;;;;;;;;;;;4206503;28;19969;-51
2023/03/10 13:13:24;;;;;;;;;;;;;;;;;;4206393;28;20020;-46
2023/03/10 13:15:25;;;;;;;;;;;;;;;;;;4199501;28;20049;-49
2023/03/10 13:17:26;;;;;;;;;;;;;;;;;;4203498;28;19998;-48
2023/03/10 13:19:27;;;;;;;;;;;;;;;;;;4208388;28;19920;-47
2023/03/10 13:21:29;;;;;;;;;;;;;;;;;;4204260;28;19928;-48
2023/03/10 13:23:33;;;;;;;;;;;;;;;;;;4208641;28;19928;-49
2023/03/10 13:25:35;;;;;;;;;;;;;;;;;;4205655;28;20302;-49
2023/03/10 13:27:36;;;;;;;;;;;;;;;;;;4207619;28;19928;-48
2023/03/10 13:29:37;;;;;;;;;;;;;;;;;;4211752;28;20391;-46
2023/03/10 13:31:38;;;;;;;;;;;;;;;;;;4214185;28;19931;-45
2023/03/10 13:33:40;;;;;;;;;;;;;;;;;;4220161;28;19930;-49
2023/03/10 13:35:41;;;;;;;;;;;;;;;;;;4214194;28;19931;-47
2023/03/10 13:37:42;;;;;;;;;;;;;;;;;;4217429;28;20455;-49
2023/03/10 13:39:43;;;;;;;;;;;;;;;;;;4196615;28;19923;-45
2023/03/10 13:41:44;;;;;;;;;;;;;;;;;;4199310;28;20368;-45
2023/03/10 13:43:47;;;;;;;;;;;;;;;;;;4214328;28;19924;-44
2023/03/10 13:45:48;;;;;;;;;;;;;;;;;;4191876;28;19924;-48
2023/03/10 13:47:49;;;;;;;;;;;;;;;;;;4210408;28;19931;-47
2023/03/10 13:49:50;;;;;;;;;;;;;;;;;;4207394;28;19998;-48